Saratoga-Weather Station Historical Data
Daily Summary for July 2, 2022 Units:  Metric    English   Both
Daily Weekly Monthly Yearly
  High: Low: Average:
Temperature: 16 °C 14 °C 14.9 °C
Dew Point: 14.3 °C 12.6 °C 13.3 °C
Humidity: 91% 89% 90%
Wind Speed: 3.2km/h 0km/h 1.3km/h
Wind Gust: 9.7km/h - -
Wind- - WSW
Pressure: 1024.3 hPa 1023.4 hPa -
Precipitation: 0.0 mm    
 
 
Tabular Data for July 2, 2022
Time Temperature Dew Point Pressure Wind Wind Speed Wind Gust Humidity Rainfall Rate (Hourly) solar
00:00 15.9 °C 14.1 °C 1024.3 hPa Calm     89% 0.0 mm 0 W/m2
00:05 15.8 °C 14 °C 1024.2 hPa Calm     89% 0.0 mm 0 W/m2
00:10 15.8 °C 13.9 °C 1024.2 hPa Calm     89% 0.0 mm 0 W/m2
00:15 15.8 °C 14.2 °C 1024.2 hPa Calm     90% 0.0 mm 0 W/m2
00:20 15.9 °C 14.3 °C 1024.2 hPa Calm   4.8 km/h 90% 0.0 mm 0 W/m2
00:25 15.8 °C 14 °C 1024.2 hPa West 1.6 km/h 4.8 km/h 89% 0.0 mm 0 W/m2
00:30 15.9 °C 14.3 °C 1024.3 hPa WNW 1.6 km/h 3.2 km/h 90% 0.0 mm 0 W/m2
00:35 15.9 °C 14.1 °C 1024.2 hPa WNW 1.6 km/h 3.2 km/h 89% 0.0 mm 0 W/m2
00:40 16 °C 14.2 °C 1024.2 hPa WNW 1.6 km/h 3.2 km/h 89% 0.0 mm 0 W/m2
00:45 15.7 °C 13.8 °C 1024.2 hPa Calm   3.2 km/h 89% 0.0 mm 0 W/m2
00:50 15.6 °C 14 °C 1024.2 hPa Calm   3.2 km/h 90% 0.0 mm 0 W/m2
00:55 15.8 °C 14.2 °C 1024.2 hPa WSW 1.6 km/h 3.2 km/h 90% 0.0 mm 0 W/m2
01:00 15.9 °C 14.3 °C 1024.1 hPa SW 1.6 km/h 3.2 km/h 90% 0.0 mm 0 W/m2
01:05 16 °C 14.3 °C 1024.1 hPa SW 1.6 km/h 3.2 km/h 90% 0.0 mm 0 W/m2
01:10 15.9 °C 14.1 °C 1024.1 hPa Calm   4.8 km/h 89% 0.0 mm 0 W/m2
01:15 15.8 °C 14 °C 1024.2 hPa SW 1.6 km/h 4.8 km/h 89% 0.0 mm 0 W/m2
01:20 15.6 °C 13.7 °C 1024.1 hPa Calm   4.8 km/h 89% 0.0 mm 0 W/m2
01:25 15.6 °C 13.7 °C 1024.0 hPa Calm   3.2 km/h 89% 0.0 mm 0 W/m2
01:30 15.6 °C 13.9 °C 1024.0 hPa SW 1.6 km/h 4.8 km/h 90% 0.0 mm 0 W/m2
01:35 15.6 °C 14 °C 1023.9 hPa SW 1.6 km/h 4.8 km/h 90% 0.0 mm 0 W/m2
01:40 15.6 °C 14 °C 1023.9 hPa SW 1.6 km/h 3.2 km/h 90% 0.0 mm 0 W/m2
01:45 15.6 °C 13.8 °C 1023.9 hPa Calm   3.2 km/h 89% 0.0 mm 0 W/m2
01:50 15.6 °C 14 °C 1023.8 hPa Calm   4.8 km/h 90% 0.0 mm 0 W/m2
01:55 15.7 °C 13.8 °C 1023.9 hPa West 1.6 km/h 6.4 km/h 89% 0.0 mm 0 W/m2
02:00 15.6 °C 13.7 °C 1023.9 hPa WSW 1.6 km/h 6.4 km/h 89% 0.0 mm 0 W/m2
02:05 15.5 °C 13.9 °C 1023.9 hPa SW 1.6 km/h 4.8 km/h 90% 0.0 mm 0 W/m2
02:10 15.4 °C 13.8 °C 1023.9 hPa SSW 1.6 km/h 4.8 km/h 90% 0.0 mm 0 W/m2
02:15 15.5 °C 13.9 °C 1024.0 hPa SW 1.6 km/h 3.2 km/h 90% 0.0 mm 0 W/m2
02:20 15.5 °C 13.9 °C 1024.0 hPa WSW 1.6 km/h 3.2 km/h 90% 0.0 mm 0 W/m2
02:25 15.4 °C 13.8 °C 1023.9 hPa West 1.6 km/h 3.2 km/h 90% 0.0 mm 0 W/m2
02:30 15.4 °C 13.8 °C 1023.9 hPa Calm   3.2 km/h 90% 0.0 mm 0 W/m2
02:35 15.4 °C 13.6 °C 1023.9 hPa West 1.6 km/h 3.2 km/h 89% 0.0 mm 0 W/m2
02:40 15.4 °C 13.8 °C 1023.9 hPa West 1.6 km/h 3.2 km/h 90% 0.0 mm 0 W/m2
02:45 15.1 °C 13.3 °C 1023.9 hPa West 1.6 km/h 3.2 km/h 89% 0.0 mm 0 W/m2
02:50 15.2 °C 13.6 °C 1023.9 hPa Calm   1.6 km/h 90% 0.0 mm 0 W/m2
02:55 15.1 °C 13.5 °C 1023.9 hPa Calm   1.6 km/h 90% 0.0 mm 0 W/m2
03:00 15 °C 13.4 °C 1024.0 hPa Calm   1.6 km/h 90% 0.0 mm 0 W/m2
03:05 15 °C 13.4 °C 1023.9 hPa Calm   1.6 km/h 90% 0.0 mm 0 W/m2
03:10 15 °C 13.4 °C 1023.9 hPa Calm   1.6 km/h 90% 0.0 mm 0 W/m2
03:15 14.9 °C 13.3 °C 1023.9 hPa Calm   1.6 km/h 90% 0.0 mm 0 W/m2
03:20 14.8 °C 13.1 °C 1023.8 hPa Calm   1.6 km/h 89% 0.0 mm 0 W/m2
03:25 14.7 °C 13.1 °C 1023.8 hPa SW 1.6 km/h 4.8 km/h 90% 0.0 mm 0 W/m2
03:30 14.8 °C 13.2 °C 1023.7 hPa SW 1.6 km/h 4.8 km/h 90% 0.0 mm 0 W/m2
03:35 14.8 °C 13.2 °C 1023.7 hPa SSW 1.6 km/h 3.2 km/h 90% 0.0 mm 0 W/m2
03:40 14.7 °C 13.1 °C 1023.6 hPa SW 1.6 km/h 6.4 km/h 90% 0.0 mm 0 W/m2
03:45 14.7 °C 13.1 °C 1023.5 hPa SW 1.6 km/h 6.4 km/h 90% 0.0 mm 0 W/m2
03:50 14.7 °C 13.1 °C 1023.5 hPa SW 1.6 km/h 4.8 km/h 90% 0.0 mm 0 W/m2
03:55 14.8 °C 13.2 °C 1023.4 hPa SW 1.6 km/h 6.4 km/h 90% 0.0 mm 0 W/m2
04:00 14.8 °C 13.2 °C 1023.4 hPa SSW 1.6 km/h 6.4 km/h 90% 0.0 mm 0 W/m2
04:05 14.8 °C 13.2 °C 1023.4 hPa SW 1.6 km/h 6.4 km/h 90% 0.0 mm 0 W/m2
04:10 14.9 °C 13.3 °C 1023.4 hPa WSW 1.6 km/h 6.4 km/h 90% 0.0 mm 0 W/m2
04:15 14.9 °C 13.3 °C 1023.4 hPa West 1.6 km/h 4.8 km/h 90% 0.0 mm 0 W/m2
04:20 14.9 °C 13.3 °C 1023.5 hPa SW 1.6 km/h 4.8 km/h 90% 0.0 mm 0 W/m2
04:25 14.8 °C 13.2 °C 1023.5 hPa SW 1.6 km/h 4.8 km/h 90% 0.0 mm 0 W/m2
04:30 14.8 °C 13.2 °C 1023.4 hPa WSW 1.6 km/h 6.4 km/h 90% 0.0 mm 0 W/m2
04:35 14.8 °C 13.2 °C 1023.4 hPa SW 1.6 km/h 6.4 km/h 90% 0.0 mm 0 W/m2
04:40 14.7 °C 13.1 °C 1023.4 hPa SSW 1.6 km/h 4.8 km/h 90% 0.0 mm 0 W/m2
04:45 14.6 °C 13 °C 1023.6 hPa SSW 1.6 km/h 3.2 km/h 90% 0.0 mm 0 W/m2
04:50 14.6 °C 12.9 °C 1023.5 hPa Calm   4.8 km/h 90% 0.0 mm 0 W/m2
04:55 14.5 °C 12.9 °C 1023.5 hPa West 1.6 km/h 4.8 km/h 90% 0.0 mm 0 W/m2
05:00 14.5 °C 12.9 °C 1023.6 hPa West 1.6 km/h 4.8 km/h 90% 0.0 mm 0 W/m2
05:05 14.6 °C 12.9 °C 1023.5 hPa West 1.6 km/h 4.8 km/h 90% 0.0 mm 0 W/m2
05:10 14.5 °C 12.9 °C 1023.5 hPa West 1.6 km/h 3.2 km/h 90% 0.0 mm 0 W/m2
05:15 14.4 °C 12.8 °C 1023.4 hPa West 1.6 km/h 3.2 km/h 90% 0.0 mm 0 W/m2
05:20 14.5 °C 13.1 °C 1023.5 hPa West 1.6 km/h 4.8 km/h 91% 0.0 mm 0 W/m2
05:25 14.5 °C 13.1 °C 1023.5 hPa West 1.6 km/h 4.8 km/h 91% 0.0 mm 0 W/m2
05:30 14.4 °C 13 °C 1023.4 hPa Calm   3.2 km/h 91% 0.0 mm 0 W/m2
05:35 14.4 °C 13 °C 1023.5 hPa WSW 1.6 km/h 4.8 km/h 91% 0.0 mm 0 W/m2
05:40 14.5 °C 13.1 °C 1023.5 hPa West 1.6 km/h 4.8 km/h 91% 0.0 mm 0 W/m2
05:45 14.5 °C 13.1 °C 1023.5 hPa West 1.6 km/h 4.8 km/h 91% 0.0 mm 0 W/m2
05:50 14.6 °C 13.1 °C 1023.5 hPa West 1.6 km/h 4.8 km/h 91% 0.0 mm 0 W/m2
05:55 14.6 °C 12.9 °C 1023.6 hPa West 1.6 km/h 4.8 km/h 90% 0.0 mm 0 W/m2
06:00 14.6 °C 13.1 °C 1023.6 hPa West 1.6 km/h 4.8 km/h 91% 0.0 mm 0 W/m2
06:05 14.6 °C 13.1 °C 1023.5 hPa West 1.6 km/h 4.8 km/h 91% 0.0 mm 0 W/m2
06:10 14.6 °C 13.2 °C 1023.5 hPa West 1.6 km/h 4.8 km/h 91% 0.0 mm 0 W/m2
06:15 14.6 °C 13.1 °C 1023.5 hPa West 1.6 km/h 6.4 km/h 91% 0.0 mm 0 W/m2
06:20 14.6 °C 13.2 °C 1023.6 hPa WNW 1.6 km/h 6.4 km/h 91% 0.0 mm 0 W/m2
06:25 14.7 °C 13.2 °C 1023.5 hPa West 1.6 km/h 4.8 km/h 91% 0.0 mm 0 W/m2
06:30 14.6 °C 13.1 °C 1023.5 hPa West 1.6 km/h 3.2 km/h 91% 0.0 mm 0 W/m2
06:35 14.5 °C 13.1 °C 1023.4 hPa West 1.6 km/h 4.8 km/h 91% 0.0 mm 0 W/m2
06:40 14.4 °C 13 °C 1023.4 hPa WSW 1.6 km/h 4.8 km/h 91% 0.0 mm 0 W/m2
06:45 14.4 °C 12.9 °C 1023.5 hPa WSW 1.6 km/h 6.4 km/h 91% 0.0 mm 0 W/m2
06:50 14.4 °C 13 °C 1023.5 hPa WSW 1.6 km/h 6.4 km/h 91% 0.0 mm 0 W/m2
06:55 14.3 °C 12.9 °C 1023.6 hPa WSW 1.6 km/h 4.8 km/h 91% 0.0 mm 0 W/m2
07:00 14.3 °C 12.9 °C 1023.6 hPa WSW 1.6 km/h 4.8 km/h 91% 0.0 mm 0 W/m2
07:05 14.3 °C 12.8 °C 1023.6 hPa WSW 1.6 km/h 4.8 km/h 91% 0.0 mm 0 W/m2
07:10 14.3 °C 12.8 °C 1023.6 hPa WSW 1.6 km/h 4.8 km/h 91% 0.0 mm 0 W/m2
07:15 14.3 °C 12.8 °C 1023.6 hPa WSW 1.6 km/h 4.8 km/h 91% 0.0 mm 0 W/m2
07:20 14.3 °C 12.8 °C 1023.6 hPa SW 1.6 km/h 4.8 km/h 91% 0.0 mm 0 W/m2
07:25 14.2 °C 12.8 °C 1023.7 hPa SSW 1.6 km/h 6.4 km/h 91% 0.0 mm 0 W/m2
07:30 14.2 °C 12.8 °C 1023.6 hPa SSW 1.6 km/h 6.4 km/h 91% 0.0 mm 0 W/m2
07:35 14.2 °C 12.7 °C 1023.6 hPa SW 3.2 km/h 6.4 km/h 91% 0.0 mm 0 W/m2
07:40 14.2 °C 12.7 °C 1023.6 hPa West 3.2 km/h 6.4 km/h 91% 0.0 mm 0 W/m2
07:45 14.2 °C 12.7 °C 1023.6 hPa West 1.6 km/h 6.4 km/h 91% 0.0 mm 0 W/m2
07:50 14.2 °C 12.8 °C 1023.7 hPa WNW 1.6 km/h 6.4 km/h 91% 0.0 mm 0 W/m2
07:55 14.3 °C 12.8 °C 1023.7 hPa WNW 1.6 km/h 6.4 km/h 91% 0.0 mm 0 W/m2
08:00 14.3 °C 12.8 °C 1023.8 hPa WSW 1.6 km/h 4.8 km/h 91% 0.0 mm 0 W/m2
08:05 14.2 °C 12.8 °C 1023.9 hPa SSW 1.6 km/h 4.8 km/h 91% 0.0 mm 0 W/m2
08:10 14 °C 12.6 °C 1023.9 hPa Calm   3.2 km/h 91% 0.0 mm 5 W/m2
08:15 14 °C 12.6 °C 1024.0 hPa Calm   3.2 km/h 91% 0.0 mm 7 W/m2
08:20 14.1 °C 12.6 °C 1024.0 hPa SW 1.6 km/h 3.2 km/h 91% 0.0 mm 9 W/m2
08:25 14.1 °C 12.7 °C 1023.9 hPa WSW 1.6 km/h 6.4 km/h 91% 0.0 mm 12 W/m2
08:30 14.2 °C 12.7 °C 1024.0 hPa West 1.6 km/h 6.4 km/h 91% 0.0 mm 14 W/m2
08:35 14.2 °C 12.7 °C 1023.9 hPa WSW 1.6 km/h 4.8 km/h 91% 0.0 mm 23 W/m2
08:40 14.2 °C 12.8 °C 1023.8 hPa SSW 3.2 km/h 6.4 km/h 91% 0.0 mm 32 W/m2
08:45 14.2 °C 12.8 °C 1023.8 hPa South 3.2 km/h 9.7 km/h 91% 0.0 mm 39 W/m2
San Sebastian - Arriola Weather
Compliments of Weather Underground - 768 kb